sensor_id;sensor_type;location;lat;lon;timestamp;P1;durP1;ratioP1;P2;durP2;ratioP2
42972;SDS011;28610;51.214;6.962;2023-06-22T00:00:35;7.30;;;4.30;;
42972;SDS011;28610;51.214;6.962;2023-06-22T00:03:23;7.57;;;4.47;;
42972;SDS011;28610;51.214;6.962;2023-06-22T00:06:08;8.05;;;4.82;;
42972;SDS011;28610;51.214;6.962;2023-06-22T00:08:54;7.57;;;4.75;;
42972;SDS011;28610;51.214;6.962;2023-06-22T00:11:40;10.40;;;4.53;;
42972;SDS011;28610;51.214;6.962;2023-06-22T00:14:25;8.27;;;4.80;;
42972;SDS011;28610;51.214;6.962;2023-06-22T00:17:12;9.55;;;5.38;;
42972;SDS011;28610;51.214;6.962;2023-06-22T00:19:58;8.30;;;5.03;;
42972;SDS011;28610;51.214;6.962;2023-06-22T00:22:43;8.60;;;4.78;;
42972;SDS011;28610;51.214;6.962;2023-06-22T00:25:29;8.45;;;5.03;;
42972;SDS011;28610;51.214;6.962;2023-06-22T00:28:15;10.63;;;4.70;;
42972;SDS011;28610;51.214;6.962;2023-06-22T00:31:00;6.55;;;4.35;;
42972;SDS011;28610;51.214;6.962;2023-06-22T00:33:47;7.90;;;4.75;;
42972;SDS011;28610;51.214;6.962;2023-06-22T00:36:34;7.25;;;4.35;;
42972;SDS011;28610;51.214;6.962;2023-06-22T00:39:20;8.25;;;4.40;;
42972;SDS011;28610;51.214;6.962;2023-06-22T00:42:06;12.02;;;4.68;;
42972;SDS011;28610;51.214;6.962;2023-06-22T00:44:51;9.40;;;4.55;;
42972;SDS011;28610;51.214;6.962;2023-06-22T00:47:37;9.07;;;4.68;;
42972;SDS011;28610;51.214;6.962;2023-06-22T00:50:25;8.00;;;5.18;;
42972;SDS011;28610;51.214;6.962;2023-06-22T00:53:11;8.65;;;4.95;;
42972;SDS011;28610;51.214;6.962;2023-06-22T00:55:56;9.20;;;4.82;;
42972;SDS011;28610;51.214;6.962;2023-06-22T00:58:43;8.57;;;4.72;;
42972;SDS011;28610;51.214;6.962;2023-06-22T01:01:30;9.18;;;4.72;;
42972;SDS011;28610;51.214;6.962;2023-06-22T01:04:17;9.55;;;5.35;;
42972;SDS011;28610;51.214;6.962;2023-06-22T01:07:06;10.80;;;5.57;;
42972;SDS011;28610;51.214;6.962;2023-06-22T01:09:57;10.75;;;5.57;;
42972;SDS011;28610;51.214;6.962;2023-06-22T01:12:45;9.80;;;5.53;;
42972;SDS011;28610;51.214;6.962;2023-06-22T01:15:36;11.90;;;5.75;;
42972;SDS011;28610;51.214;6.962;2023-06-22T01:18:22;11.20;;;5.80;;
42972;SDS011;28610;51.214;6.962;2023-06-22T01:21:12;12.88;;;6.30;;
42972;SDS011;28610;51.214;6.962;2023-06-22T01:24:14;11.77;;;6.68;;
42972;SDS011;28610;51.214;6.962;2023-06-22T01:27:04;11.13;;;6.07;;
42972;SDS011;28610;51.214;6.962;2023-06-22T01:29:57;12.65;;;6.35;;
42972;SDS011;28610;51.214;6.962;2023-06-22T01:32:45;12.35;;;6.95;;
42972;SDS011;28610;51.214;6.962;2023-06-22T01:35:31;13.85;;;7.40;;
42972;SDS011;28610;51.214;6.962;2023-06-22T01:38:17;12.23;;;7.07;;
42972;SDS011;28610;51.214;6.962;2023-06-22T01:41:03;12.45;;;7.10;;
42972;SDS011;28610;51.214;6.962;2023-06-22T01:43:49;12.10;;;6.95;;
42972;SDS011;28610;51.214;6.962;2023-06-22T01:46:37;13.48;;;7.15;;
42972;SDS011;28610;51.214;6.962;2023-06-22T01:49:23;12.75;;;7.88;;
42972;SDS011;28610;51.214;6.962;2023-06-22T01:52:09;14.63;;;8.35;;
42972;SDS011;28610;51.214;6.962;2023-06-22T01:54:55;15.50;;;7.57;;
42972;SDS011;28610;51.214;6.962;2023-06-22T01:57:41;11.65;;;7.55;;
42972;SDS011;28610;51.214;6.962;2023-06-22T02:00:28;18.73;;;8.77;;
42972;SDS011;28610;51.214;6.962;2023-06-22T02:03:16;14.77;;;7.80;;
42972;SDS011;28610;51.214;6.962;2023-06-22T02:06:04;13.38;;;7.95;;
42972;SDS011;28610;51.214;6.962;2023-06-22T02:08:51;14.07;;;8.15;;
42972;SDS011;28610;51.214;6.962;2023-06-22T02:11:39;13.40;;;8.27;;
42972;SDS011;28610;51.214;6.962;2023-06-22T02:14:26;12.77;;;7.85;;
42972;SDS011;28610;51.214;6.962;2023-06-22T02:17:12;16.27;;;8.60;;
42972;SDS011;28610;51.214;6.962;2023-06-22T02:20:00;14.07;;;8.30;;
42972;SDS011;28610;51.214;6.962;2023-06-22T02:22:47;13.07;;;8.30;;
42972;SDS011;28610;51.214;6.962;2023-06-22T02:25:33;13.95;;;8.13;;
42972;SDS011;28610;51.214;6.962;2023-06-22T02:28:19;13.75;;;8.68;;
42972;SDS011;28610;51.214;6.962;2023-06-22T02:31:06;14.00;;;8.55;;
42972;SDS011;28610;51.214;6.962;2023-06-22T02:33:51;14.63;;;9.10;;
42972;SDS011;28610;51.214;6.962;2023-06-22T02:36:38;19.88;;;10.27;;
42972;SDS011;28610;51.214;6.962;2023-06-22T02:39:24;13.43;;;9.35;;
42972;SDS011;28610;51.214;6.962;2023-06-22T02:42:09;17.15;;;9.60;;
42972;SDS011;28610;51.214;6.962;2023-06-22T02:44:55;16.40;;;9.30;;
42972;SDS011;28610;51.214;6.962;2023-06-22T02:47:41;13.60;;;9.15;;
42972;SDS011;28610;51.214;6.962;2023-06-22T02:50:26;14.07;;;9.10;;
42972;SDS011;28610;51.214;6.962;2023-06-22T02:53:13;16.00;;;9.10;;
42972;SDS011;28610;51.214;6.962;2023-06-22T02:56:00;16.83;;;9.20;;
42972;SDS011;28610;51.214;6.962;2023-06-22T02:58:47;15.13;;;9.18;;
42972;SDS011;28610;51.214;6.962;2023-06-22T03:01:32;16.23;;;9.00;;
42972;SDS011;28610;51.214;6.962;2023-06-22T03:04:21;14.88;;;8.77;;
42972;SDS011;28610;51.214;6.962;2023-06-22T03:07:06;14.73;;;8.52;;
42972;SDS011;28610;51.214;6.962;2023-06-22T03:09:54;14.02;;;8.63;;
42972;SDS011;28610;51.214;6.962;2023-06-22T03:12:40;14.98;;;9.35;;
42972;SDS011;28610;51.214;6.962;2023-06-22T03:15:25;14.40;;;8.82;;
42972;SDS011;28610;51.214;6.962;2023-06-22T03:18:13;12.88;;;8.63;;
42972;SDS011;28610;51.214;6.962;2023-06-22T03:20:59;16.35;;;8.95;;
42972;SDS011;28610;51.214;6.962;2023-06-22T03:23:46;13.65;;;8.95;;
42972;SDS011;28610;51.214;6.962;2023-06-22T03:26:33;15.75;;;8.93;;
42972;SDS011;28610;51.214;6.962;2023-06-22T03:29:19;17.55;;;8.90;;
42972;SDS011;28610;51.214;6.962;2023-06-22T03:32:05;17.02;;;8.88;;
42972;SDS011;28610;51.214;6.962;2023-06-22T03:34:50;12.52;;;8.10;;
42972;SDS011;28610;51.214;6.962;2023-06-22T03:37:36;12.98;;;8.93;;
42972;SDS011;28610;51.214;6.962;2023-06-22T03:40:21;13.52;;;9.10;;
42972;SDS011;28610;51.214;6.962;2023-06-22T03:43:08;13.77;;;8.40;;
42972;SDS011;28610;51.214;6.962;2023-06-22T03:45:54;14.65;;;9.00;;
42972;SDS011;28610;51.214;6.962;2023-06-22T03:48:39;15.45;;;8.95;;
42972;SDS011;28610;51.214;6.962;2023-06-22T03:51:25;13.13;;;8.57;;
42972;SDS011;28610;51.214;6.962;2023-06-22T03:54:11;14.18;;;8.90;;
42972;SDS011;28610;51.214;6.962;2023-06-22T03:56:57;18.88;;;8.80;;
42972;SDS011;28610;51.214;6.962;2023-06-22T03:59:44;15.73;;;9.27;;
42972;SDS011;28610;51.214;6.962;2023-06-22T04:02:30;16.50;;;9.00;;
42972;SDS011;28610;51.214;6.962;2023-06-22T04:05:16;17.58;;;9.40;;
42972;SDS011;28610;51.214;6.962;2023-06-22T04:08:03;16.40;;;8.68;;
42972;SDS011;28610;51.214;6.962;2023-06-22T04:10:49;15.35;;;8.77;;
42972;SDS011;28610;51.214;6.962;2023-06-22T04:13:34;16.58;;;8.20;;
42972;SDS011;28610;51.214;6.962;2023-06-22T04:16:21;13.93;;;7.78;;
42972;SDS011;28610;51.214;6.962;2023-06-22T04:19:07;15.15;;;8.13;;
42972;SDS011;28610;51.214;6.962;2023-06-22T04:21:57;14.90;;;8.30;;
42972;SDS011;28610;51.214;6.962;2023-06-22T04:24:43;15.77;;;8.07;;
42972;SDS011;28610;51.214;6.962;2023-06-22T04:27:29;14.93;;;8.20;;
42972;SDS011;28610;51.214;6.962;2023-06-22T04:30:14;16.42;;;8.80;;
42972;SDS011;28610;51.214;6.962;2023-06-22T04:33:01;14.60;;;8.40;;
42972;SDS011;28610;51.214;6.962;2023-06-22T04:35:47;16.67;;;8.43;;
42972;SDS011;28610;51.214;6.962;2023-06-22T04:38:34;15.10;;;8.20;;
42972;SDS011;28610;51.214;6.962;2023-06-22T04:41:19;14.40;;;7.93;;
42972;SDS011;28610;51.214;6.962;2023-06-22T04:44:08;14.55;;;8.30;;
42972;SDS011;28610;51.214;6.962;2023-06-22T04:46:56;20.88;;;9.20;;
42972;SDS011;28610;51.214;6.962;2023-06-22T04:49:45;15.10;;;9.05;;
42972;SDS011;28610;51.214;6.962;2023-06-22T04:52:31;14.77;;;8.13;;
42972;SDS011;28610;51.214;6.962;2023-06-22T04:55:16;17.55;;;8.52;;
42972;SDS011;28610;51.214;6.962;2023-06-22T04:58:03;15.50;;;8.65;;
42972;SDS011;28610;51.214;6.962;2023-06-22T05:00:49;14.00;;;8.77;;
42972;SDS011;28610;51.214;6.962;2023-06-22T05:03:35;17.23;;;9.02;;
42972;SDS011;28610;51.214;6.962;2023-06-22T05:06:23;17.77;;;8.13;;
42972;SDS011;28610;51.214;6.962;2023-06-22T05:09:09;17.48;;;8.15;;
42972;SDS011;28610;51.214;6.962;2023-06-22T05:11:55;16.63;;;8.82;;
42972;SDS011;28610;51.214;6.962;2023-06-22T05:14:41;18.50;;;8.18;;
42972;SDS011;28610;51.214;6.962;2023-06-22T05:17:26;14.07;;;8.40;;
42972;SDS011;28610;51.214;6.962;2023-06-22T05:20:12;16.13;;;8.45;;
42972;SDS011;28610;51.214;6.962;2023-06-22T05:23:03;18.25;;;8.20;;
42972;SDS011;28610;51.214;6.962;2023-06-22T05:25:48;18.02;;;8.90;;
42972;SDS011;28610;51.214;6.962;2023-06-22T05:28:34;17.38;;;8.05;;
42972;SDS011;28610;51.214;6.962;2023-06-22T05:31:20;19.63;;;8.40;;
42972;SDS011;28610;51.214;6.962;2023-06-22T05:34:05;15.88;;;8.02;;
42972;SDS011;28610;51.214;6.962;2023-06-22T05:36:51;19.88;;;8.00;;
42972;SDS011;28610;51.214;6.962;2023-06-22T05:39:38;18.73;;;8.77;;
42972;SDS011;28610;51.214;6.962;2023-06-22T05:42:24;18.45;;;8.85;;
42972;SDS011;28610;51.214;6.962;2023-06-22T05:45:10;18.73;;;9.32;;
42972;SDS011;28610;51.214;6.962;2023-06-22T05:47:55;18.80;;;8.98;;
42972;SDS011;28610;51.214;6.962;2023-06-22T05:50:41;14.13;;;9.02;;
42972;SDS011;28610;51.214;6.962;2023-06-22T05:53:27;22.02;;;9.48;;
42972;SDS011;28610;51.214;6.962;2023-06-22T05:56:14;16.77;;;9.68;;
42972;SDS011;28610;51.214;6.962;2023-06-22T05:59:00;16.33;;;10.20;;
42972;SDS011;28610;51.214;6.962;2023-06-22T06:01:46;18.30;;;9.68;;
42972;SDS011;28610;51.214;6.962;2023-06-22T06:04:34;14.82;;;10.02;;
42972;SDS011;28610;51.214;6.962;2023-06-22T06:07:19;16.80;;;9.82;;
42972;SDS011;28610;51.214;6.962;2023-06-22T06:10:05;15.35;;;9.55;;
42972;SDS011;28610;51.214;6.962;2023-06-22T06:12:53;17.65;;;9.82;;
42972;SDS011;28610;51.214;6.962;2023-06-22T06:15:38;17.25;;;9.80;;
42972;SDS011;28610;51.214;6.962;2023-06-22T06:18:24;16.00;;;9.48;;
42972;SDS011;28610;51.214;6.962;2023-06-22T06:21:10;14.38;;;9.68;;
42972;SDS011;28610;51.214;6.962;2023-06-22T06:23:56;14.07;;;9.52;;
42972;SDS011;28610;51.214;6.962;2023-06-22T06:26:42;14.88;;;10.00;;
42972;SDS011;28610;51.214;6.962;2023-06-22T06:29:29;18.88;;;10.30;;
42972;SDS011;28610;51.214;6.962;2023-06-22T06:32:15;16.67;;;10.38;;
42972;SDS011;28610;51.214;6.962;2023-06-22T06:35:00;17.58;;;10.20;;
42972;SDS011;28610;51.214;6.962;2023-06-22T06:37:47;18.95;;;11.20;;
42972;SDS011;28610;51.214;6.962;2023-06-22T06:40:33;17.20;;;10.10;;
42972;SDS011;28610;51.214;6.962;2023-06-22T06:43:19;17.98;;;11.32;;
42972;SDS011;28610;51.214;6.962;2023-06-22T06:46:06;19.85;;;12.38;;
42972;SDS011;28610;51.214;6.962;2023-06-22T06:48:52;19.63;;;12.13;;
42972;SDS011;28610;51.214;6.962;2023-06-22T06:51:37;23.85;;;13.07;;
42972;SDS011;28610;51.214;6.962;2023-06-22T06:54:23;28.05;;;14.90;;
42972;SDS011;28610;51.214;6.962;2023-06-22T06:57:09;26.77;;;15.23;;
42972;SDS011;28610;51.214;6.962;2023-06-22T06:59:57;30.25;;;15.98;;
42972;SDS011;28610;51.214;6.962;2023-06-22T07:02:44;37.75;;;18.20;;
42972;SDS011;28610;51.214;6.962;2023-06-22T07:05:31;34.47;;;17.42;;
42972;SDS011;28610;51.214;6.962;2023-06-22T07:08:17;35.85;;;21.00;;
42972;SDS011;28610;51.214;6.962;2023-06-22T07:11:03;34.38;;;21.38;;
42972;SDS011;28610;51.214;6.962;2023-06-22T07:13:49;29.30;;;17.83;;
42972;SDS011;28610;51.214;6.962;2023-06-22T07:16:34;30.42;;;18.92;;
42972;SDS011;28610;51.214;6.962;2023-06-22T07:19:25;39.65;;;20.42;;
42972;SDS011;28610;51.214;6.962;2023-06-22T07:22:11;33.85;;;21.80;;
42972;SDS011;28610;51.214;6.962;2023-06-22T07:24:57;35.03;;;20.73;;
42972;SDS011;28610;51.214;6.962;2023-06-22T07:27:45;38.78;;;21.23;;
42972;SDS011;28610;51.214;6.962;2023-06-22T07:30:32;31.65;;;20.08;;
42972;SDS011;28610;51.214;6.962;2023-06-22T07:33:18;28.30;;;19.25;;
42972;SDS011;28610;51.214;6.962;2023-06-22T07:36:06;31.13;;;18.63;;
42972;SDS011;28610;51.214;6.962;2023-06-22T07:38:52;34.47;;;20.15;;
42972;SDS011;28610;51.214;6.962;2023-06-22T07:41:38;26.85;;;16.80;;
42972;SDS011;28610;51.214;6.962;2023-06-22T07:44:24;21.85;;;15.18;;
42972;SDS011;28610;51.214;6.962;2023-06-22T07:47:10;23.70;;;15.05;;
42972;SDS011;28610;51.214;6.962;2023-06-22T07:49:57;22.88;;;13.75;;
42972;SDS011;28610;51.214;6.962;2023-06-22T07:52:46;20.45;;;12.85;;
42972;SDS011;28610;51.214;6.962;2023-06-22T07:55:32;20.77;;;13.32;;
42972;SDS011;28610;51.214;6.962;2023-06-22T07:58:18;20.77;;;12.20;;
42972;SDS011;28610;51.214;6.962;2023-06-22T08:01:04;22.25;;;14.88;;
42972;SDS011;28610;51.214;6.962;2023-06-22T08:03:49;21.80;;;13.52;;
42972;SDS011;28610;51.214;6.962;2023-06-22T08:06:35;21.58;;;13.60;;
42972;SDS011;28610;51.214;6.962;2023-06-22T08:09:22;18.13;;;12.30;;
42972;SDS011;28610;51.214;6.962;2023-06-22T08:12:08;18.25;;;11.95;;
42972;SDS011;28610;51.214;6.962;2023-06-22T08:14:54;18.35;;;12.38;;
42972;SDS011;28610;51.214;6.962;2023-06-22T08:17:41;18.67;;;11.68;;
42972;SDS011;28610;51.214;6.962;2023-06-22T08:20:27;19.75;;;11.25;;
42972;SDS011;28610;51.214;6.962;2023-06-22T08:23:13;17.98;;;11.30;;
42972;SDS011;28610;51.214;6.962;2023-06-22T08:26:00;17.25;;;10.80;;
42972;SDS011;28610;51.214;6.962;2023-06-22T08:28:45;19.08;;;11.90;;
42972;SDS011;28610;51.214;6.962;2023-06-22T08:31:31;19.80;;;12.10;;
42972;SDS011;28610;51.214;6.962;2023-06-22T08:34:18;17.65;;;10.48;;
42972;SDS011;28610;51.214;6.962;2023-06-22T08:37:08;18.30;;;11.88;;
42972;SDS011;28610;51.214;6.962;2023-06-22T08:39:54;16.70;;;10.40;;
42972;SDS011;28610;51.214;6.962;2023-06-22T08:42:41;17.13;;;12.23;;
42972;SDS011;28610;51.214;6.962;2023-06-22T08:45:27;17.58;;;11.10;;
42972;SDS011;28610;51.214;6.962;2023-06-22T08:48:13;16.75;;;11.10;;
42972;SDS011;28610;51.214;6.962;2023-06-22T08:50:59;19.65;;;10.75;;
42972;SDS011;28610;51.214;6.962;2023-06-22T08:53:46;17.50;;;11.48;;
42972;SDS011;28610;51.214;6.962;2023-06-22T08:56:31;15.57;;;10.30;;
42972;SDS011;28610;51.214;6.962;2023-06-22T08:59:19;17.23;;;10.38;;
42972;SDS011;28610;51.214;6.962;2023-06-22T09:02:05;16.92;;;9.90;;
42972;SDS011;28610;51.214;6.962;2023-06-22T09:04:51;16.55;;;9.60;;
42972;SDS011;28610;51.214;6.962;2023-06-22T09:07:39;16.75;;;9.40;;
42972;SDS011;28610;51.214;6.962;2023-06-22T09:10:25;13.43;;;9.55;;
42972;SDS011;28610;51.214;6.962;2023-06-22T09:13:11;13.60;;;9.82;;
42972;SDS011;28610;51.214;6.962;2023-06-22T09:15:58;14.30;;;10.02;;
42972;SDS011;28610;51.214;6.962;2023-06-22T09:18:46;15.98;;;10.25;;
42972;SDS011;28610;51.214;6.962;2023-06-22T09:21:32;14.20;;;9.85;;
42972;SDS011;28610;51.214;6.962;2023-06-22T09:24:18;16.25;;;10.63;;
42972;SDS011;28610;51.214;6.962;2023-06-22T09:27:04;18.55;;;9.70;;
42972;SDS011;28610;51.214;6.962;2023-06-22T09:29:50;16.02;;;10.20;;
42972;SDS011;28610;51.214;6.962;2023-06-22T09:32:37;17.40;;;10.73;;
42972;SDS011;28610;51.214;6.962;2023-06-22T09:35:22;16.67;;;10.73;;
42972;SDS011;28610;51.214;6.962;2023-06-22T09:38:08;18.00;;;10.05;;
42972;SDS011;28610;51.214;6.962;2023-06-22T09:40:54;16.13;;;9.98;;
42972;SDS011;28610;51.214;6.962;2023-06-22T09:43:40;16.55;;;9.95;;
42972;SDS011;28610;51.214;6.962;2023-06-22T09:46:25;15.85;;;10.02;;
42972;SDS011;28610;51.214;6.962;2023-06-22T09:49:13;14.43;;;9.45;;
42972;SDS011;28610;51.214;6.962;2023-06-22T09:51:59;15.80;;;10.00;;
42972;SDS011;28610;51.214;6.962;2023-06-22T09:54:44;14.93;;;8.85;;
42972;SDS011;28610;51.214;6.962;2023-06-22T09:57:30;14.23;;;9.60;;
42972;SDS011;28610;51.214;6.962;2023-06-22T10:00:16;17.10;;;9.27;;
42972;SDS011;28610;51.214;6.962;2023-06-22T10:03:02;14.35;;;9.70;;
42972;SDS011;28610;51.214;6.962;2023-06-22T10:05:49;14.82;;;10.10;;
42972;SDS011;28610;51.214;6.962;2023-06-22T10:08:35;14.05;;;9.88;;
42972;SDS011;28610;51.214;6.962;2023-06-22T10:11:21;17.50;;;9.20;;
42972;SDS011;28610;51.214;6.962;2023-06-22T10:14:10;14.15;;;9.75;;
42972;SDS011;28610;51.214;6.962;2023-06-22T10:16:56;14.98;;;10.32;;
42972;SDS011;28610;51.214;6.962;2023-06-22T10:19:42;14.13;;;9.98;;
42972;SDS011;28610;51.214;6.962;2023-06-22T10:22:29;15.15;;;10.13;;
42972;SDS011;28610;51.214;6.962;2023-06-22T10:25:14;14.55;;;9.73;;
42972;SDS011;28610;51.214;6.962;2023-06-22T10:28:00;15.23;;;9.65;;
42972;SDS011;28610;51.214;6.962;2023-06-22T10:30:46;13.95;;;9.25;;
42972;SDS011;28610;51.214;6.962;2023-06-22T10:33:32;14.32;;;10.00;;
42972;SDS011;28610;51.214;6.962;2023-06-22T10:36:17;15.18;;;9.98;;
42972;SDS011;28610;51.214;6.962;2023-06-22T10:39:04;15.80;;;10.02;;
42972;SDS011;28610;51.214;6.962;2023-06-22T10:41:50;18.45;;;11.13;;
42972;SDS011;28610;51.214;6.962;2023-06-22T10:44:36;13.77;;;9.82;;
42972;SDS011;28610;51.214;6.962;2023-06-22T10:47:22;14.43;;;9.60;;
42972;SDS011;28610;51.214;6.962;2023-06-22T10:50:08;18.60;;;11.40;;
42972;SDS011;28610;51.214;6.962;2023-06-22T10:52:54;18.13;;;11.80;;
42972;SDS011;28610;51.214;6.962;2023-06-22T10:55:41;21.25;;;12.43;;
42972;SDS011;28610;51.214;6.962;2023-06-22T10:58:26;20.27;;;12.75;;
42972;SDS011;28610;51.214;6.962;2023-06-22T11:01:12;20.45;;;12.70;;
42972;SDS011;28610;51.214;6.962;2023-06-22T11:03:58;21.77;;;13.05;;
42972;SDS011;28610;51.214;6.962;2023-06-22T11:06:43;21.58;;;13.05;;
42972;SDS011;28610;51.214;6.962;2023-06-22T11:09:29;26.73;;;14.63;;
42972;SDS011;28610;51.214;6.962;2023-06-22T11:12:16;22.50;;;15.27;;
42972;SDS011;28610;51.214;6.962;2023-06-22T11:15:02;22.20;;;14.35;;
42972;SDS011;28610;51.214;6.962;2023-06-22T11:17:48;26.73;;;15.90;;
42972;SDS011;28610;51.214;6.962;2023-06-22T11:20:34;24.80;;;15.07;;
42972;SDS011;28610;51.214;6.962;2023-06-22T11:23:22;26.23;;;16.55;;
42972;SDS011;28610;51.214;6.962;2023-06-22T11:26:09;22.75;;;16.27;;
42972;SDS011;28610;51.214;6.962;2023-06-22T11:28:56;23.35;;;15.55;;
42972;SDS011;28610;51.214;6.962;2023-06-22T11:31:42;28.63;;;17.55;;
42972;SDS011;28610;51.214;6.962;2023-06-22T11:34:27;25.38;;;16.50;;
42972;SDS011;28610;51.214;6.962;2023-06-22T11:37:13;30.63;;;18.35;;
42972;SDS011;28610;51.214;6.962;2023-06-22T11:39:59;29.40;;;17.83;;
42972;SDS011;28610;51.214;6.962;2023-06-22T11:42:44;26.80;;;17.48;;
42972;SDS011;28610;51.214;6.962;2023-06-22T11:45:31;29.33;;;17.77;;
42972;SDS011;28610;51.214;6.962;2023-06-22T11:48:17;30.02;;;19.98;;
42972;SDS011;28610;51.214;6.962;2023-06-22T11:51:02;25.10;;;16.90;;
42972;SDS011;28610;51.214;6.962;2023-06-22T11:53:49;32.40;;;20.15;;
42972;SDS011;28610;51.214;6.962;2023-06-22T11:56:35;32.33;;;21.10;;
42972;SDS011;28610;51.214;6.962;2023-06-22T11:59:21;34.15;;;22.40;;
42972;SDS011;28610;51.214;6.962;2023-06-22T12:02:08;32.00;;;21.92;;
42972;SDS011;28610;51.214;6.962;2023-06-22T12:04:53;34.22;;;22.60;;
42972;SDS011;28610;51.214;6.962;2023-06-22T12:07:40;28.45;;;20.23;;
42972;SDS011;28610;51.214;6.962;2023-06-22T12:10:26;31.92;;;21.10;;
42972;SDS011;28610;51.214;6.962;2023-06-22T12:13:12;36.33;;;21.98;;
42972;SDS011;28610;51.214;6.962;2023-06-22T12:15:58;27.23;;;19.13;;
42972;SDS011;28610;51.214;6.962;2023-06-22T12:18:45;30.90;;;18.55;;
42972;SDS011;28610;51.214;6.962;2023-06-22T12:21:31;32.95;;;19.88;;
42972;SDS011;28610;51.214;6.962;2023-06-22T12:24:17;26.58;;;19.25;;
42972;SDS011;28610;51.214;6.962;2023-06-22T12:27:02;29.70;;;19.50;;
42972;SDS011;28610;51.214;6.962;2023-06-22T12:29:48;30.58;;;22.45;;
42972;SDS011;28610;51.214;6.962;2023-06-22T12:32:34;29.77;;;21.45;;
42972;SDS011;28610;51.214;6.962;2023-06-22T12:35:21;31.65;;;20.88;;
42972;SDS011;28610;51.214;6.962;2023-06-22T12:38:06;30.00;;;21.17;;
42972;SDS011;28610;51.214;6.962;2023-06-22T12:40:52;26.65;;;19.95;;
42972;SDS011;28610;51.214;6.962;2023-06-22T12:43:38;31.83;;;21.15;;
42972;SDS011;28610;51.214;6.962;2023-06-22T12:46:23;31.00;;;21.10;;
42972;SDS011;28610;51.214;6.962;2023-06-22T12:49:09;32.63;;;21.15;;
42972;SDS011;28610;51.214;6.962;2023-06-22T12:51:56;28.17;;;20.58;;
42972;SDS011;28610;51.214;6.962;2023-06-22T12:54:41;28.88;;;20.58;;
42972;SDS011;28610;51.214;6.962;2023-06-22T12:57:27;34.08;;;22.83;;
42972;SDS011;28610;51.214;6.962;2023-06-22T13:00:13;31.67;;;21.95;;
42972;SDS011;28610;51.214;6.962;2023-06-22T13:02:59;31.17;;;21.40;;
42972;SDS011;28610;51.214;6.962;2023-06-22T13:05:44;28.42;;;20.48;;
42972;SDS011;28610;51.214;6.962;2023-06-22T13:08:31;28.30;;;19.83;;
42972;SDS011;28610;51.214;6.962;2023-06-22T13:11:17;30.35;;;20.00;;
42972;SDS011;28610;51.214;6.962;2023-06-22T13:14:02;28.55;;;19.98;;
42972;SDS011;28610;51.214;6.962;2023-06-22T13:16:48;24.52;;;17.65;;
42972;SDS011;28610;51.214;6.962;2023-06-22T13:19:34;29.83;;;19.10;;
42972;SDS011;28610;51.214;6.962;2023-06-22T13:22:26;25.98;;;18.60;;
42972;SDS011;28610;51.214;6.962;2023-06-22T13:25:14;24.40;;;16.92;;
42972;SDS011;28610;51.214;6.962;2023-06-22T13:28:02;23.75;;;17.30;;
42972;SDS011;28610;51.214;6.962;2023-06-22T13:30:48;24.42;;;16.73;;
42972;SDS011;28610;51.214;6.962;2023-06-22T13:33:34;21.63;;;16.00;;
42972;SDS011;28610;51.214;6.962;2023-06-22T13:36:20;22.63;;;14.82;;
42972;SDS011;28610;51.214;6.962;2023-06-22T13:39:07;21.58;;;14.82;;
42972;SDS011;28610;51.214;6.962;2023-06-22T13:41:54;22.85;;;15.75;;
42972;SDS011;28610;51.214;6.962;2023-06-22T13:44:39;23.05;;;16.08;;
42972;SDS011;28610;51.214;6.962;2023-06-22T13:47:25;23.90;;;15.50;;
42972;SDS011;28610;51.214;6.962;2023-06-22T13:50:10;21.63;;;14.95;;
42972;SDS011;28610;51.214;6.962;2023-06-22T13:52:57;18.38;;;12.60;;
42972;SDS011;28610;51.214;6.962;2023-06-22T13:55:42;18.60;;;12.60;;
42972;SDS011;28610;51.214;6.962;2023-06-22T13:58:29;17.80;;;12.55;;
42972;SDS011;28610;51.214;6.962;2023-06-22T14:01:15;17.00;;;11.88;;
42972;SDS011;28610;51.214;6.962;2023-06-22T14:04:00;21.33;;;12.65;;
42972;SDS011;28610;51.214;6.962;2023-06-22T14:06:46;26.40;;;13.07;;
42972;SDS011;28610;51.214;6.962;2023-06-22T14:09:32;20.08;;;12.10;;
42972;SDS011;28610;51.214;6.962;2023-06-22T14:12:17;23.02;;;12.55;;
42972;SDS011;28610;51.214;6.962;2023-06-22T14:15:05;25.25;;;13.93;;
42972;SDS011;28610;51.214;6.962;2023-06-22T14:17:51;22.02;;;13.57;;
42972;SDS011;28610;51.214;6.962;2023-06-22T14:20:37;24.38;;;13.60;;
42972;SDS011;28610;51.214;6.962;2023-06-22T14:23:24;31.05;;;14.57;;
42972;SDS011;28610;51.214;6.962;2023-06-22T14:26:10;24.90;;;13.63;;
42972;SDS011;28610;51.214;6.962;2023-06-22T14:28:55;22.00;;;14.55;;
42972;SDS011;28610;51.214;6.962;2023-06-22T14:31:44;22.00;;;13.55;;
42972;SDS011;28610;51.214;6.962;2023-06-22T14:34:30;27.58;;;14.48;;
42972;SDS011;28610;51.214;6.962;2023-06-22T14:37:16;21.33;;;13.73;;
42972;SDS011;28610;51.214;6.962;2023-06-22T14:40:02;22.00;;;13.77;;
42972;SDS011;28610;51.214;6.962;2023-06-22T14:42:48;23.42;;;13.82;;
42972;SDS011;28610;51.214;6.962;2023-06-22T14:45:33;19.17;;;13.75;;
42972;SDS011;28610;51.214;6.962;2023-06-22T14:48:20;24.40;;;13.57;;
42972;SDS011;28610;51.214;6.962;2023-06-22T14:51:06;22.85;;;14.48;;
42972;SDS011;28610;51.214;6.962;2023-06-22T14:53:52;22.00;;;14.70;;
42972;SDS011;28610;51.214;6.962;2023-06-22T14:56:38;19.60;;;13.70;;
42972;SDS011;28610;51.214;6.962;2023-06-22T14:59:23;26.58;;;16.88;;
42972;SDS011;28610;51.214;6.962;2023-06-22T15:02:09;26.55;;;15.77;;
42972;SDS011;28610;51.214;6.962;2023-06-22T15:04:56;25.40;;;15.93;;
42972;SDS011;28610;51.214;6.962;2023-06-22T15:07:42;23.45;;;15.70;;
42972;SDS011;28610;51.214;6.962;2023-06-22T15:10:27;25.20;;;15.98;;
42972;SDS011;28610;51.214;6.962;2023-06-22T15:13:13;25.50;;;15.27;;
42972;SDS011;28610;51.214;6.962;2023-06-22T15:15:59;23.30;;;15.30;;
42972;SDS011;28610;51.214;6.962;2023-06-22T15:18:45;24.48;;;14.90;;
42972;SDS011;28610;51.214;6.962;2023-06-22T15:21:33;22.23;;;14.25;;
42972;SDS011;28610;51.214;6.962;2023-06-22T15:24:19;22.50;;;14.15;;
42972;SDS011;28610;51.214;6.962;2023-06-22T15:27:04;22.35;;;14.10;;
42972;SDS011;28610;51.214;6.962;2023-06-22T15:29:50;22.05;;;14.30;;
42972;SDS011;28610;51.214;6.962;2023-06-22T15:32:36;23.75;;;16.42;;
42972;SDS011;28610;51.214;6.962;2023-06-22T15:35:22;28.95;;;17.70;;
42972;SDS011;28610;51.214;6.962;2023-06-22T15:38:09;32.80;;;19.63;;
42972;SDS011;28610;51.214;6.962;2023-06-22T15:40:55;27.10;;;16.52;;
42972;SDS011;28610;51.214;6.962;2023-06-22T15:43:40;31.20;;;17.25;;
42972;SDS011;28610;51.214;6.962;2023-06-22T15:46:26;34.03;;;21.50;;
42972;SDS011;28610;51.214;6.962;2023-06-22T15:49:12;30.98;;;21.58;;
42972;SDS011;28610;51.214;6.962;2023-06-22T15:51:58;35.63;;;22.13;;
42972;SDS011;28610;51.214;6.962;2023-06-22T15:54:45;41.75;;;23.55;;
42972;SDS011;28610;51.214;6.962;2023-06-22T15:57:30;36.35;;;23.33;;
42972;SDS011;28610;51.214;6.962;2023-06-22T16:00:18;38.22;;;23.88;;
42972;SDS011;28610;51.214;6.962;2023-06-22T16:03:04;36.20;;;23.98;;
42972;SDS011;28610;51.214;6.962;2023-06-22T16:05:50;35.17;;;23.10;;
42972;SDS011;28610;51.214;6.962;2023-06-22T16:08:35;35.13;;;24.20;;
42972;SDS011;28610;51.214;6.962;2023-06-22T16:11:22;35.30;;;25.75;;
42972;SDS011;28610;51.214;6.962;2023-06-22T16:14:08;41.38;;;24.50;;
42972;SDS011;28610;51.214;6.962;2023-06-22T16:16:53;33.85;;;23.27;;
42972;SDS011;28610;51.214;6.962;2023-06-22T16:19:39;32.95;;;21.67;;